Time;durP1;ratioP1;P1;durP2;ratioP2;P2;SDS_P1;SDS_P2;PMS_P1;PMS_P2;Temp;Humidity;BMP_temperature;BMP_pressure;BME280_temperature;BME280_humidity;BME280_pressure;Samples;Min_cycle;Max_cycle;Signal;HPM_P1;HPM_P2
2023/01/26 00:00:58;;;;;;;37.50;21.40;;;;;;;4.62;67.93;100985.00;5016526;27;97331;-82
2023/01/26 00:03:24;;;;;;;40.47;22.00;;;;;;;4.65;67.90;100985.00;5019312;27;97369;-82
2023/01/26 00:05:50;;;;;;;41.57;21.33;;;;;;;4.65;68.05;100991.06;5007333;27;101304;-82
2023/01/26 00:08:16;;;;;;;43.93;22.97;;;;;;;4.65;68.19;100980.66;5036246;27;97101;-81
2023/01/26 00:10:49;;;;;;;46.00;22.90;;;;;;;4.54;68.30;100962.47;5014526;28;98622;-82
2023/01/26 00:13:17;;;;;;;44.43;23.67;;;;;;;4.67;67.94;100991.06;5019631;27;98095;-82
2023/01/26 00:15:43;;;;;;;44.17;24.17;;;;;;;4.66;68.09;100990.22;5026480;27;101763;-82
2023/01/26 00:18:09;;;;;;;46.23;25.53;;;;;;;4.64;67.90;100985.88;5005431;27;97223;-81
2023/01/26 00:20:34;;;;;;;42.43;22.27;;;;;;;4.67;68.28;100984.13;5005822;28;96877;-82
2023/01/26 00:23:00;;;;;;;39.03;22.47;;;;;;;4.55;67.89;100958.13;5026719;27;98226;-82
2023/01/26 00:25:25;;;;;;;41.23;23.73;;;;;;;4.66;68.05;100982.41;5011402;28;101092;-81
2023/01/26 00:27:51;;;;;;;44.63;24.07;;;;;;;4.65;68.49;100983.25;5021495;27;96882;-82
2023/01/26 00:30:17;;;;;;;43.13;23.13;;;;;;;4.64;68.00;100983.25;5030494;27;97160;-83
2023/01/26 00:32:42;;;;;;;42.97;23.37;;;;;;;4.68;68.27;100978.09;5003788;27;101375;-82
2023/01/26 00:35:08;;;;;;;38.50;22.03;;;;;;;4.70;68.30;100983.25;4997424;27;98691;-81
2023/01/26 00:37:35;;;;;;;40.97;21.97;;;;;;;4.65;68.44;100972.84;5016660;27;96917;-82
2023/01/26 00:40:01;;;;;;;42.13;23.67;;;;;;;4.54;68.12;100953.81;5015524;28;96889;-82
2023/01/26 00:42:26;;;;;;;37.93;21.40;;;;;;;4.66;68.00;100976.34;5019617;27;101146;-82
2023/01/26 00:44:52;;;;;;;40.90;21.13;;;;;;;4.66;68.45;100966.81;5017034;27;101930;-82
2023/01/26 00:47:17;;;;;;;40.73;22.73;;;;;;;4.66;68.40;100971.13;5007231;27;96798;-82
2023/01/26 00:49:44;;;;;;;44.90;23.00;;;;;;;4.52;68.50;100964.19;5001268;28;97395;-82
2023/01/26 00:52:11;;;;;;;40.57;21.37;;;;;;;4.53;68.54;100955.50;5029198;27;97961;-82
2023/01/26 00:54:37;;;;;;;35.43;20.53;;;;;;;4.50;68.50;100952.91;5023260;27;101409;-81
2023/01/26 00:57:02;;;;;;;35.80;20.40;;;;;;;4.58;68.35;100968.53;5004449;27;96800;-82
2023/01/26 00:59:31;;;;;;;35.33;20.47;;;;;;;4.56;68.67;100965.03;5042186;27;97472;-82
2023/01/26 01:01:57;;;;;;;39.07;20.87;;;;;;;4.53;68.65;100959.84;5023908;27;101263;-82
2023/01/26 01:04:24;;;;;;;34.03;20.73;;;;;;;4.57;68.40;100964.19;5041352;27;98452;-82
2023/01/26 01:06:50;;;;;;;36.90;20.77;;;;;;;4.59;68.54;100974.59;5005341;27;96888;-81
2023/01/26 01:09:16;;;;;;;42.67;22.27;;;;;;;4.61;68.77;100984.13;5028384;27;97112;-82
2023/01/26 01:11:42;;;;;;;33.33;19.47;;;;;;;4.60;68.54;100973.75;5030111;27;98140;-83
2023/01/26 01:14:08;;;;;;;40.33;22.40;;;;;;;4.61;68.69;100970.25;5031092;27;101133;-82
2023/01/26 01:16:34;;;;;;;36.90;21.43;;;;;;;4.62;68.52;100969.38;5028994;27;96771;-83
2023/01/26 01:19:00;;;;;;;38.47;21.53;;;;;;;4.50;68.78;100945.09;5017865;28;96848;-82
2023/01/26 01:21:25;;;;;;;41.13;21.37;;;;;;;4.56;68.73;100970.25;4993279;27;101965;-82
2023/01/26 01:23:52;;;;;;;36.67;20.20;;;;;;;4.52;68.89;100966.78;5015645;27;101147;-83
2023/01/26 01:26:18;;;;;;;39.93;22.10;;;;;;;4.49;68.66;100956.38;5014217;27;96833;-82
2023/01/26 01:28:44;;;;;;;38.83;21.10;;;;;;;4.47;68.51;100949.44;5024929;27;97481;-82
2023/01/26 01:31:12;;;;;;;39.87;21.17;;;;;;;4.44;68.47;100942.50;5023236;27;98404;-83
2023/01/26 01:33:38;;;;;;;41.77;23.00;;;;;;;4.50;68.46;100965.91;5001981;27;101684;-82
2023/01/26 01:36:06;;;;;;;36.80;21.60;;;;;;;4.25;68.82;100928.63;5027876;27;97907;-82
2023/01/26 01:38:32;;;;;;;38.37;20.97;;;;;;;4.46;68.74;100956.38;5038812;27;97230;-82
2023/01/26 01:40:58;;;;;;;45.20;22.33;;;;;;;4.49;68.90;100956.38;5013816;27;101070;-82
2023/01/26 01:43:24;;;;;;;40.87;22.10;;;;;;;4.45;68.96;100952.06;5017122;28;101276;-82
2023/01/26 01:45:51;;;;;;;42.23;21.80;;;;;;;4.53;68.92;100957.25;5000560;27;97173;-82
2023/01/26 01:48:27;;;;;;;43.83;22.33;;;;;;;4.40;68.53;100938.19;5020781;28;97237;-82
2023/01/26 01:50:56;;;;;;;47.63;24.80;;;;;;;4.45;68.80;100948.56;4999563;27;101101;-82
2023/01/26 01:53:33;;;;;;;36.03;22.13;;;;;;;4.47;69.28;100944.25;4992639;27;101366;-82
2023/01/26 01:56:02;;;;;;;39.10;22.90;;;;;;;4.40;68.91;100921.72;5030008;27;97385;-82
2023/01/26 01:58:29;;;;;;;43.27;23.33;;;;;;;4.48;68.63;100928.66;5009209;27;97199;-82
2023/01/26 02:00:54;;;;;;;43.10;22.30;;;;;;;4.54;68.56;100935.59;5030739;27;98587;-82
2023/01/26 02:03:20;;;;;;;40.70;22.73;;;;;;;4.42;68.48;100910.47;5022477;27;101619;-82
2023/01/26 02:05:49;;;;;;;42.90;22.17;;;;;;;4.56;68.31;100931.25;5018369;27;96951;-83
2023/01/26 02:08:18;;;;;;;36.33;21.87;;;;;;;4.46;68.66;100909.59;5024215;27;98090;-82
2023/01/26 02:10:45;;;;;;;41.63;23.50;;;;;;;4.49;68.17;100899.19;5040571;27;101410;-82
2023/01/26 02:13:11;;;;;;;39.37;22.33;;;;;;;4.54;67.99;100914.78;5021049;27;101274;-82
2023/01/26 02:15:40;;;;;;;42.60;23.57;;;;;;;4.27;68.54;100876.63;5020834;27;96832;-81
2023/01/26 02:18:07;;;;;;;43.67;22.03;;;;;;;4.47;68.77;100905.25;5006657;27;97127;-83
2023/01/26 02:20:54;;;;;;;38.17;20.83;;;;;;;4.41;68.60;100892.25;5038214;27;97887;-82
2023/01/26 02:23:35;;;;;;;39.60;22.50;;;;;;;4.50;68.65;100898.31;5022321;28;101652;-82
2023/01/26 02:26:05;;;;;;;39.50;21.98;;;;;;;4.54;68.21;100896.59;5011183;28;96782;-82
2023/01/26 02:28:31;;;;;;;42.60;22.87;;;;;;;4.49;68.48;100893.13;5026609;27;97314;-81
2023/01/26 02:30:57;;;;;;;38.40;22.17;;;;;;;4.39;68.38;100880.97;5010396;27;101788;-82
2023/01/26 02:33:28;;;;;;;44.53;23.80;;;;;;;4.51;68.08;100894.00;5029319;27;101272;-82
2023/01/26 02:35:59;;;;;;;43.30;24.57;;;;;;;4.50;68.22;100884.44;5022138;27;97570;-82
2023/01/26 02:38:30;;;;;;;44.60;24.40;;;;;;;4.47;68.06;100872.31;5022306;27;97983;-82
2023/01/26 02:42:37;;;;;;;42.22;25.15;;;;;;;4.50;67.56;100880.09;5041233;27;101651;-81
2023/01/26 02:44:06;;;;;;;49.10;25.60;;;;;;;4.49;67.77;100877.53;5019333;27;101493;-82
2023/01/26 02:46:31;;;;;;;48.03;24.83;;;;;;;4.44;67.50;100872.31;5018876;27;97438;-82
2023/01/26 02:51:41;;;;;;;46.40;25.17;;;;;;;4.40;67.11;100873.19;5034483;27;98154;-82
2023/01/26 02:54:07;;;;;;;51.57;27.40;;;;;;;4.39;67.32;100860.19;5023478;27;101497;-81
2023/01/26 02:56:32;;;;;;;52.97;28.10;;;;;;;4.32;66.97;100856.72;5036237;27;97625;-83
2023/01/26 02:58:58;;;;;;;49.67;27.87;;;;;;;4.26;67.30;100867.13;5004819;27;97305;-82
2023/01/26 03:01:23;;;;;;;59.00;29.73;;;;;;;4.26;67.19;100859.31;5025783;27;101643;-82
2023/01/26 03:03:49;;;;;;;55.67;27.83;;;;;;;4.17;66.96;100847.19;5024991;27;101306;-81
2023/01/26 03:06:15;;;;;;;52.70;28.03;;;;;;;4.31;66.58;100862.78;5028774;27;96721;-82
2023/01/26 03:08:41;;;;;;;58.57;29.70;;;;;;;4.13;67.28;100858.47;5027844;27;97250;-82
2023/01/26 03:11:07;;;;;;;52.77;28.50;;;;;;;4.16;67.41;100860.16;5009157;27;101501;-82
2023/01/26 03:13:34;;;;;;;54.60;29.03;;;;;;;4.02;67.24;100835.06;5057173;27;98012;-82
2023/01/26 03:16:05;;;;;;;60.43;29.00;;;;;;;4.17;67.19;100847.19;5031784;27;96745;-82
2023/01/26 03:29:38;;;;;;;53.83;26.70;;;;;;;4.26;64.02;100821.19;5033031;27;96962;-83
2023/01/26 03:32:04;;;;;;;51.37;28.17;;;;;;;4.34;64.56;100831.59;5006640;27;101638;-82
2023/01/26 03:34:30;;;;;;;52.73;28.90;;;;;;;4.38;64.69;100825.53;4998330;27;101325;-81
2023/01/26 03:36:57;;;;;;;51.93;26.90;;;;;;;4.34;64.07;100813.41;5013544;27;96866;-82
2023/01/26 03:59:08;;;;;;;50.53;27.17;;;;;;;4.15;63.17;100794.34;4968391;28;97946;-82
2023/01/26 04:01:38;;;;;;;47.53;26.43;;;;;;;4.05;63.16;100785.69;5029741;27;98107;-82
2023/01/26 04:09:40;;;;;;;50.60;27.63;;;;;;;4.03;63.86;100784.81;5019794;27;96810;-83
2023/01/26 04:12:09;;;;;;;48.27;27.00;;;;;;;4.00;63.37;100769.22;5045671;27;97176;-82
2023/01/26 04:22:56;;;;;;;44.63;23.87;;;;;;;4.07;61.94;100790.88;4996569;27;96968;-81
2023/01/26 04:25:22;;;;;;;41.37;22.80;;;;;;;4.13;61.11;100790.91;4964216;28;101511;-82
2023/01/26 04:27:48;;;;;;;39.40;22.53;;;;;;;4.07;61.48;100794.38;4979576;27;101487;-82
2023/01/26 04:30:15;;;;;;;40.73;21.67;;;;;;;4.01;59.95;100796.94;4984185;28;97192;-82
2023/01/26 04:32:40;;;;;;;43.47;20.23;;;;;;;3.76;60.15;100788.28;4988433;27;97386;-83
2023/01/26 04:35:07;;;;;;;42.47;21.53;;;;;;;3.74;60.68;100787.41;4992667;28;101400;-82
2023/01/26 04:37:34;;;;;;;37.47;20.37;;;;;;;3.68;61.08;100771.81;5025929;27;101247;-83
2023/01/26 04:40:00;;;;;;;38.80;21.63;;;;;;;3.76;60.95;100787.41;4995136;28;97428;-82
2023/01/26 04:42:28;;;;;;;33.53;20.03;;;;;;;3.78;61.22;100768.38;5011933;27;97544;-82
2023/01/26 04:44:57;;;;;;;35.63;20.73;;;;;;;3.91;60.75;100794.34;5013507;28;101887;-83
2023/01/26 04:47:22;;;;;;;39.57;20.30;;;;;;;3.84;61.52;100780.50;5023989;27;102119;-82
2023/01/26 04:49:48;;;;;;;37.90;21.90;;;;;;;3.92;61.40;100776.16;4981363;28;97277;-82
2023/01/26 04:52:18;;;;;;;36.33;20.67;;;;;;;4.02;61.26;100777.91;4982978;27;97497;-82
2023/01/26 04:54:43;;;;;;;42.17;20.47;;;;;;;4.04;61.42;100776.19;5000088;28;101319;-82
2023/01/26 04:57:10;;;;;;;34.27;19.47;;;;;;;4.03;60.33;100766.63;5003141;28;102252;-83
2023/01/26 04:59:36;;;;;;;32.90;18.67;;;;;;;3.86;60.36;100758.81;4985612;28;97128;-82
2023/01/26 05:02:02;;;;;;;33.37;19.83;;;;;;;3.77;60.33;100770.94;4971147;28;96966;-82
2023/01/26 05:04:27;;;;;;;32.73;18.53;;;;;;;3.73;60.77;100761.44;4992678;28;101337;-83
2023/01/26 05:06:53;;;;;;;32.07;18.17;;;;;;;3.57;61.04;100743.22;4974480;28;101194;-83
2023/01/26 05:09:21;;;;;;;32.43;19.23;;;;;;;3.77;60.89;100764.03;4985942;28;96787;-82
2023/01/26 05:11:53;;;;;;;34.17;19.57;;;;;;;3.59;60.52;100736.31;5003486;27;98063;-82
2023/01/26 05:14:19;;;;;;;32.07;17.80;;;;;;;3.52;60.29;100747.56;4991308;28;98261;-82
2023/01/26 05:17:08;;;;;;;33.07;18.83;;;;;;;3.56;60.31;100764.88;5000324;28;101908;-82
2023/01/26 05:19:53;;;;;;;32.77;19.07;;;;;;;3.54;60.84;100758.81;4998223;28;97424;-83
2023/01/26 05:22:30;;;;;;;37.97;19.60;;;;;;;3.67;60.92;100759.69;5006820;28;96843;-82
2023/01/26 05:25:19;;;;;;;37.43;20.90;;;;;;;3.73;60.87;100751.06;5011315;27;97750;-82
2023/01/26 05:28:00;;;;;;;33.65;18.38;;;;;;;3.84;60.49;100757.97;5019825;27;99284;-82
2023/01/26 05:30:26;;;;;;;41.57;20.43;;;;;;;3.85;60.32;100759.72;5018624;27;97379;-83
2023/01/26 05:32:52;;;;;;;33.30;19.47;;;;;;;3.83;59.91;100751.03;5015193;27;97116;-82
2023/01/26 05:35:19;;;;;;;35.67;20.00;;;;;;;3.86;59.75;100761.44;5019708;27;100720;-82
2023/01/26 05:37:45;;;;;;;31.67;17.90;;;;;;;3.80;59.60;100752.78;4997673;27;100716;-82
2023/01/26 05:40:12;;;;;;;32.40;18.40;;;;;;;3.74;59.82;100744.97;5001067;27;97097;-82
2023/01/26 05:42:39;;;;;;;37.00;20.43;;;;;;;3.78;59.81;100752.78;5043207;27;97950;-82
2023/01/26 05:45:20;;;;;;;38.13;20.77;;;;;;;3.83;59.92;100748.44;5027939;27;101533;-83
2023/01/26 05:47:48;;;;;;;33.17;17.97;;;;;;;3.92;59.74;100763.16;5020206;27;100752;-82
2023/01/26 05:50:14;;;;;;;34.63;18.70;;;;;;;3.93;59.44;100764.91;5015154;27;97513;-83
2023/01/26 05:52:42;;;;;;;35.67;19.10;;;;;;;3.96;59.29;100762.31;5036703;27;97346;-82
2023/01/26 05:55:08;;;;;;;33.37;18.07;;;;;;;3.92;59.00;100744.97;5014026;27;101735;-82
2023/01/26 05:57:35;;;;;;;27.80;17.03;;;;;;;3.93;59.28;100753.66;5013779;27;101180;-82
2023/01/26 06:00:05;;;;;;;29.77;16.67;;;;;;;3.92;59.49;100738.94;5025545;27;97168;-84
2023/01/26 06:02:39;;;;;;;31.07;18.63;;;;;;;3.99;59.13;100741.53;5042792;27;97368;-82
2023/01/26 06:05:06;;;;;;;28.27;16.87;;;;;;;3.97;59.02;100740.66;5017472;27;100439;-83
2023/01/26 06:07:32;;;;;;;32.93;18.83;;;;;;;4.03;58.73;100748.44;5008197;27;101180;-83
2023/01/26 06:10:07;;;;;;;32.60;16.90;;;;;;;3.97;58.87;100730.25;4996846;27;98270;-83
2023/01/26 06:12:45;;;;;;;31.97;17.80;;;;;;;3.96;58.98;100738.94;5013517;27;97175;-82
2023/01/26 06:15:29;;;;;;;32.30;18.30;;;;;;;3.96;59.30;100735.47;5023372;27;102323;-82
2023/01/26 06:17:55;;;;;;;31.00;17.33;;;;;;;4.02;59.45;100738.06;5022649;27;101283;-82
2023/01/26 06:20:21;;;;;;;34.17;18.17;;;;;;;4.01;58.53;100736.31;5017755;27;97476;-83
2023/01/26 06:22:58;;;;;;;26.73;16.80;;;;;;;3.93;58.72;100741.53;5003021;27;97042;-81
2023/01/26 06:25:25;;;;;;;29.13;16.98;;;;;;;3.81;58.76;100733.72;5009348;27;101118;-83
2023/01/26 06:27:51;;;;;;;24.67;15.83;;;;;;;3.70;59.19;100733.75;5006827;27;101458;-82
2023/01/26 06:30:24;;;;;;;28.60;16.60;;;;;;;3.69;59.34;100733.72;5019478;27;97072;-78
2023/01/26 06:32:50;;;;;;;31.90;17.37;;;;;;;3.71;59.50;100727.66;5000820;27;97311;-79
2023/01/26 06:35:16;;;;;;;30.40;17.83;;;;;;;3.70;59.73;100722.50;5010776;27;101430;-80
2023/01/26 06:37:42;;;;;;;31.23;17.97;;;;;;;3.88;59.82;100734.59;5013741;27;100904;-75
2023/01/26 06:40:09;;;;;;;26.03;15.60;;;;;;;3.94;59.51;100743.25;5022410;27;97276;-80
2023/01/26 06:42:34;;;;;;;30.23;16.33;;;;;;;3.92;59.63;100731.13;5022096;27;97187;-82
2023/01/26 06:45:00;;;;;;;28.77;16.57;;;;;;;3.98;58.41;100741.50;5008085;27;101420;-83
2023/01/26 06:47:25;;;;;;;28.10;14.70;;;;;;;3.92;58.84;100741.53;5006473;27;98387;-82
2023/01/26 06:49:52;;;;;;;27.60;15.20;;;;;;;3.82;58.65;100720.75;5013158;27;97484;-82
2023/01/26 06:52:29;;;;;;;30.70;16.20;;;;;;;3.91;58.16;100742.41;5001257;27;97434;-82
2023/01/26 06:55:00;;;;;;;31.90;17.73;;;;;;;3.90;58.93;100735.44;5015509;27;101522;-82
2023/01/26 06:58:01;;;;;;;30.27;18.50;;;;;;;3.92;58.51;100725.94;4931600;28;98019;-83
2023/01/26 07:00:45;;;;;;;29.97;16.10;;;;;;;3.94;58.80;100732.88;5042220;27;96976;-82
2023/01/26 07:03:17;;;;;;;24.60;16.50;;;;;;;3.86;59.10;100721.59;5012640;27;97238;-83
2023/01/26 07:05:42;;;;;;;30.23;15.73;;;;;;;4.01;58.75;100744.13;4998906;27;101592;-83
2023/01/26 07:08:08;;;;;;;29.17;16.50;;;;;;;3.95;58.86;100731.13;4994679;27;101407;-83
2023/01/26 07:10:34;;;;;;;30.93;17.07;;;;;;;4.05;58.74;100740.66;5030528;27;97312;-82
2023/01/26 07:13:00;;;;;;;35.60;18.97;;;;;;;3.97;58.59;100732.88;5012095;27;97055;-83
2023/01/26 07:15:25;;;;;;;32.67;18.73;;;;;;;4.05;58.64;100753.66;5020406;27;101449;-82
2023/01/26 07:17:51;;;;;;;35.63;20.70;;;;;;;4.03;58.53;100745.00;5008423;28;98436;-83
2023/01/26 07:20:17;;;;;;;34.63;20.33;;;;;;;4.00;58.53;100740.66;5016983;27;97335;-83
2023/01/26 07:22:42;;;;;;;36.63;22.30;;;;;;;3.85;59.02;100736.34;5023443;27;97485;-83
2023/01/26 07:25:08;;;;;;;33.80;19.93;;;;;;;3.90;59.45;100751.94;5009563;27;101947;-82
2023/01/26 07:27:33;;;;;;;37.73;21.77;;;;;;;3.93;59.64;100749.31;5016194;28;101017;-82
2023/01/26 07:29:59;;;;;;;33.90;20.03;;;;;;;3.75;59.65;100712.94;4992680;27;96952;-82
2023/01/26 07:32:24;;;;;;;36.20;20.50;;;;;;;3.92;59.78;100742.38;4997756;27;97540;-82
2023/01/26 07:34:50;;;;;;;35.43;20.70;;;;;;;3.93;59.67;100733.75;5034605;27;98525;-82
2023/01/26 07:37:15;;;;;;;38.40;21.93;;;;;;;4.00;59.94;100743.25;5012857;27;97952;-83
2023/01/26 07:39:41;;;;;;;41.37;22.77;;;;;;;4.00;59.86;100737.19;5033754;27;97133;-77
2023/01/26 07:42:08;;;;;;;43.30;24.20;;;;;;;3.99;59.96;100722.50;5018450;27;97194;-79
2023/01/26 07:44:46;;;;;;;44.30;24.27;;;;;;;3.68;60.98;100729.41;5018402;27;101695;-78
2023/01/26 07:47:13;;;;;;;46.83;26.90;;;;;;;3.67;61.06;100718.16;5014068;28;101419;-80
2023/01/26 07:49:39;;;;;;;43.90;26.13;;;;;;;3.70;61.85;100728.53;5021010;27;97140;-80
2023/01/26 07:52:05;;;;;;;48.37;27.20;;;;;;;3.57;61.87;100712.06;4994751;27;97122;-81
2023/01/26 07:54:31;;;;;;;50.30;28.27;;;;;;;3.79;61.39;100736.34;5030999;27;100991;-80
2023/01/26 07:56:57;;;;;;;50.33;28.70;;;;;;;3.58;62.32;100724.22;4997803;27;101324;-81
2023/01/26 07:59:22;;;;;;;47.87;29.50;;;;;;;3.62;62.53;100733.72;5014843;27;97354;-81
2023/01/26 08:01:49;;;;;;;50.57;29.57;;;;;;;3.54;63.35;100739.75;5015852;27;97380;-82
2023/01/26 08:04:15;;;;;;;54.47;30.53;;;;;;;3.47;63.17;100732.84;5018198;27;101494;-81
2023/01/26 08:06:40;;;;;;;51.17;29.83;;;;;;;3.56;63.76;100740.66;5029412;27;98332;-81
2023/01/26 08:09:06;;;;;;;54.17;30.87;;;;;;;3.55;63.67;100739.78;5031007;27;96710;-80
2023/01/26 08:11:31;;;;;;;49.07;28.90;;;;;;;3.50;63.40;100740.63;5042931;27;97319;-81
2023/01/26 08:13:57;;;;;;;44.17;26.77;;;;;;;3.42;63.38;100742.34;5017075;27;101182;-83
2023/01/26 08:16:23;;;;;;;46.13;27.33;;;;;;;3.53;63.25;100748.44;5026331;27;100857;-84
2023/01/26 08:18:48;;;;;;;45.37;24.93;;;;;;;3.44;63.09;100735.44;5005346;27;97237;-85
2023/01/26 08:21:18;;;;;;;47.00;25.63;;;;;;;3.42;62.83;100732.81;5015739;28;97660;-84
2023/01/26 08:23:50;;;;;;;39.43;23.90;;;;;;;3.48;62.37;100737.16;5007101;28;98127;-83
2023/01/26 08:26:17;;;;;;;37.00;21.70;;;;;;;3.48;62.47;100732.84;4995991;27;97409;-82
2023/01/26 08:28:43;;;;;;;38.17;21.23;;;;;;;3.50;61.80;100743.22;5005619;28;97110;-83
2023/01/26 08:31:18;;;;;;;39.43;22.30;;;;;;;3.44;62.07;100725.06;5015787;27;97148;-84
2023/01/26 08:33:45;;;;;;;33.87;20.93;;;;;;;3.58;62.11;100736.34;4997336;28;100719;-81
2023/01/26 08:36:13;;;;;;;43.27;23.40;;;;;;;3.67;62.21;100732.88;4978179;27;97400;-82
2023/01/26 08:38:38;;;;;;;40.70;22.67;;;;;;;3.73;61.89;100732.88;4987784;28;97326;-79
2023/01/26 08:41:05;;;;;;;37.37;22.17;;;;;;;3.77;61.53;100734.59;4978457;27;97177;-79
2023/01/26 08:43:30;;;;;;;36.17;21.10;;;;;;;3.83;61.57;100732.84;4980993;27;101218;-80
2023/01/26 08:45:56;;;;;;;42.03;21.87;;;;;;;3.84;60.88;100725.97;4979448;27;97333;-83
2023/01/26 08:48:22;;;;;;;33.07;21.60;;;;;;;3.86;60.66;100724.22;5008493;27;97252;-82
2023/01/26 08:50:52;;;;;;;37.37;21.90;;;;;;;3.84;60.74;100738.94;4978094;28;97511;-80
2023/01/26 08:53:18;;;;;;;33.13;20.37;;;;;;;3.71;60.69;100719.88;4988287;27;101301;-80
2023/01/26 08:55:43;;;;;;;38.30;21.57;;;;;;;3.62;60.94;100712.09;5005923;28;101196;-82
2023/01/26 08:58:09;;;;;;;38.47;20.87;;;;;;;3.77;60.96;100740.66;4978049;28;96892;-81
2023/01/26 09:00:35;;;;;;;37.97;20.40;;;;;;;3.65;61.03;100719.88;5002469;28;97953;-81
2023/01/26 09:03:01;;;;;;;32.83;20.67;;;;;;;3.79;60.87;100738.94;5000320;28;97698;-80
2023/01/26 09:05:30;;;;;;;34.77;21.97;;;;;;;3.82;61.00;100746.72;5007942;28;100970;-81
2023/01/26 09:07:56;;;;;;;34.23;23.03;;;;;;;3.80;60.79;100752.78;5020621;27;96972;-80
2023/01/26 09:10:21;;;;;;;40.17;22.20;;;;;;;3.78;60.69;100749.31;4988365;28;97039;-83
2023/01/26 09:12:47;;;;;;;32.67;21.90;;;;;;;3.78;60.75;100747.59;4983175;28;101275;-79
2023/01/26 09:15:12;;;;;;;37.07;22.43;;;;;;;3.87;61.15;100751.94;5020670;28;98117;-76
2023/01/26 09:17:38;;;;;;;33.73;20.77;;;;;;;3.73;60.37;100722.50;4995393;28;97340;-84
2023/01/26 09:20:06;;;;;;;35.47;21.67;;;;;;;3.84;60.72;100754.53;4971056;28;97214;-83
2023/01/26 09:22:31;;;;;;;39.20;23.20;;;;;;;3.70;60.72;100728.53;4992911;28;101598;-83
2023/01/26 09:24:57;;;;;;;38.27;23.23;;;;;;;3.78;60.93;100745.00;4995875;28;101564;-82
2023/01/26 09:27:22;;;;;;;38.17;22.63;;;;;;;3.63;61.29;100717.25;4997371;28;97267;-82
2023/01/26 09:29:48;;;;;;;43.93;24.40;;;;;;;3.59;61.43;100738.91;4981900;28;97129;-80
2023/01/26 09:32:14;;;;;;;42.33;23.90;;;;;;;3.53;61.77;100730.25;4998900;28;97502;-80
2023/01/26 09:34:40;;;;;;;38.97;22.20;;;;;;;3.61;61.73;100734.59;4978634;28;101125;-79
2023/01/26 09:37:06;;;;;;;37.93;22.90;;;;;;;3.50;61.87;100701.72;4998149;28;97231;-82
2023/01/26 09:39:32;;;;;;;34.83;22.07;;;;;;;3.74;61.52;100722.47;4982057;27;98087;-79
2023/01/26 09:42:24;;;;;;;35.10;22.50;;;;;;;3.86;61.28;100730.25;5013606;28;97556;-80
2023/01/26 09:45:08;;;;;;;36.90;22.38;;;;;;;3.85;61.61;100709.50;4976563;28;101625;-80
2023/01/26 09:47:54;;;;;;;36.83;22.07;;;;;;;3.93;60.99;100725.09;4990607;28;97306;-80
2023/01/26 09:50:30;;;;;;;41.07;22.20;;;;;;;3.78;61.17;100689.56;5006802;28;97380;-81
2023/01/26 09:53:05;;;;;;;38.00;21.53;;;;;;;3.88;61.30;100713.84;4995736;28;97327;-81
2023/01/26 09:55:31;;;;;;;33.70;20.67;;;;;;;3.73;61.00;100712.09;5001137;28;100952;-80
2023/01/26 09:58:03;;;;;;;35.63;20.60;;;;;;;3.63;61.57;100699.09;4991800;28;97059;-81
2023/01/26 10:00:39;;;;;;;30.23;18.90;;;;;;;3.73;61.11;100689.59;5006721;28;97410;-81
2023/01/26 10:03:28;;;;;;;29.77;18.57;;;;;;;3.92;60.88;100708.63;4988992;28;97401;-80
2023/01/26 10:06:06;;;;;;;33.60;19.33;;;;;;;3.97;59.96;100713.81;5017276;28;97929;-81
2023/01/26 10:08:50;;;;;;;33.87;18.63;;;;;;;3.90;60.55;100704.28;5004798;27;96899;-82
2023/01/26 10:11:26;;;;;;;35.33;18.40;;;;;;;4.01;60.25;100706.00;4997412;28;96951;-81
2023/01/26 10:14:04;;;;;;;32.17;18.30;;;;;;;4.05;59.62;100692.16;5016980;28;97547;-80
2023/01/26 10:16:32;;;;;;;26.83;17.60;;;;;;;3.86;59.34;100670.53;5011096;27;101143;-80
2023/01/26 10:19:11;;;;;;;36.43;20.27;;;;;;;4.15;59.42;100711.19;4974030;28;97765;-80
2023/01/26 10:21:40;;;;;;;30.33;18.97;;;;;;;4.05;59.44;100693.91;4999480;27;97662;-80
2023/01/26 10:24:08;;;;;;;34.77;18.90;;;;;;;3.83;59.63;100652.34;5031517;27;100863;-81
2023/01/26 10:26:34;;;;;;;33.57;18.53;;;;;;;4.11;58.97;100704.28;5013268;27;100900;-81
2023/01/26 10:29:00;;;;;;;38.70;19.87;;;;;;;4.16;58.89;100709.44;5022683;27;96846;-80
2023/01/26 10:31:28;;;;;;;28.90;17.90;;;;;;;4.18;59.08;100700.78;5011851;27;97181;-81
2023/01/26 10:33:57;;;;;;;31.63;19.40;;;;;;;4.22;58.91;100688.69;5055141;27;97708;-79
2023/01/26 10:36:23;;;;;;;33.77;19.43;;;;;;;4.19;58.98;100688.66;5027176;27;98013;-77
2023/01/26 10:38:50;;;;;;;32.60;19.80;;;;;;;4.11;58.84;100691.28;5024027;27;97376;-78
2023/01/26 10:41:25;;;;;;;31.43;18.33;;;;;;;3.98;58.54;100667.03;5004913;27;97142;-77
2023/01/26 10:43:53;;;;;;;35.57;21.90;;;;;;;4.12;58.13;100689.56;4996269;27;101950;-77
2023/01/26 10:46:27;;;;;;;43.27;21.70;;;;;;;4.11;58.59;100688.69;5004847;27;101151;-77
2023/01/26 10:49:02;;;;;;;35.93;20.70;;;;;;;4.12;58.39;100693.00;5019358;27;97163;-78
2023/01/26 10:51:33;;;;;;;34.33;20.60;;;;;;;3.98;58.44;100673.97;5032225;27;97102;-78
2023/01/26 10:54:22;;;;;;;32.13;19.63;;;;;;;4.16;58.74;100692.16;5041110;27;97471;-76
2023/01/26 10:57:17;;;;;;;35.07;19.73;;;;;;;4.20;58.51;100693.00;5009865;27;101517;-77
2023/01/26 10:59:56;;;;;;;31.00;19.07;;;;;;;4.14;58.50;100678.28;5010958;27;96961;-78
2023/01/26 11:02:28;;;;;;;34.77;20.43;;;;;;;4.29;58.34;100696.44;5007709;27;97273;-76
2023/01/26 11:05:22;;;;;;;34.90;21.23;;;;;;;4.31;58.01;100699.03;5016643;27;97508;-77
2023/01/26 11:07:50;;;;;;;33.20;21.23;;;;;;;4.28;58.11;100686.06;5026564;27;97582;-78
2023/01/26 11:10:16;;;;;;;38.37;21.80;;;;;;;4.17;58.02;100673.09;5004548;27;97015;-77
2023/01/26 11:12:41;;;;;;;33.67;20.93;;;;;;;4.29;58.47;100683.44;5026385;27;97521;-77
2023/01/26 11:15:19;;;;;;;38.00;21.90;;;;;;;4.30;58.26;100684.31;5015768;27;101663;-78
2023/01/26 11:18:00;;;;;;;36.47;21.90;;;;;;;4.32;58.26;100672.19;5022433;27;97333;-77
2023/01/26 11:20:44;;;;;;;32.27;20.63;;;;;;;4.31;58.28;100673.06;5003198;27;98102;-77
2023/01/26 11:23:34;;;;;;;36.87;20.43;;;;;;;4.18;58.24;100640.16;5017829;27;97343;-79
2023/01/26 11:26:20;;;;;;;33.37;20.77;;;;;;;4.14;58.21;100634.13;5007347;27;101905;-77
2023/01/26 11:28:48;;;;;;;35.00;21.43;;;;;;;4.28;58.61;100652.28;5020809;27;98380;-77
2023/01/26 11:31:53;;;;;;;37.77;22.97;;;;;;;4.30;58.95;100653.13;5025566;27;97366;-78
2023/01/26 11:34:27;;;;;;;38.00;21.60;;;;;;;4.31;58.66;100652.25;4974192;27;97266;-77
2023/01/26 11:37:14;;;;;;;39.60;22.30;;;;;;;4.26;58.30;100643.59;5021419;27;97741;-78
2023/01/26 11:39:43;;;;;;;35.03;19.97;;;;;;;4.19;58.81;100652.28;5020571;27;98254;-77
2023/01/26 11:42:09;;;;;;;34.27;20.70;;;;;;;4.14;59.19;100649.72;5022570;27;97816;-77
2023/01/26 11:44:49;;;;;;;35.60;20.47;;;;;;;4.15;59.21;100654.03;5045729;27;97338;-77
2023/01/26 11:47:36;;;;;;;34.53;19.67;;;;;;;4.19;58.83;100657.47;5026116;27;98187;-78
2023/01/26 11:50:13;;;;;;;33.87;21.30;;;;;;;4.13;58.80;100634.09;5033534;27;101187;-76
2023/01/26 11:52:56;;;;;;;35.60;21.17;;;;;;;4.26;58.74;100644.47;5015996;27;97256;-76
2023/01/26 11:55:47;;;;;;;38.50;21.87;;;;;;;4.29;58.95;100641.00;5024847;27;96914;-76
2023/01/26 11:58:23;;;;;;;39.83;22.40;;;;;;;4.29;58.98;100638.41;5029922;27;98129;-77
2023/01/26 12:00:51;;;;;;;39.37;22.83;;;;;;;4.34;58.86;100641.84;5046024;27;97560;-76
2023/01/26 12:03:25;;;;;;;37.80;22.50;;;;;;;4.30;58.64;100637.53;5028328;27;97229;-77
2023/01/26 12:05:54;;;;;;;38.40;22.87;;;;;;;4.26;58.74;100628.88;5005572;27;97043;-76
2023/01/26 12:08:42;;;;;;;42.07;24.47;;;;;;;4.25;58.55;100627.16;4996637;27;101184;-77
2023/01/26 12:11:21;;;;;;;36.73;23.47;;;;;;;4.15;58.57;100598.59;5019992;27;101106;-77
2023/01/26 12:14:07;;;;;;;39.43;22.23;;;;;;;4.24;58.60;100620.22;5027500;27;98305;-76